Terminal Aerodrome Forecast
Issued by NWS

Home | Current Version | Previous Version | Text Only | Print | Product List | Glossary On
Versions: 1 2 3 4 5 6 7 8 9 10 11 12 13 14 15 16 17
000
FTUS43 KDVN 041933 AAA
TAFBRL
TAF AMD
KBRL 041933Z 0420/0518 16006KT P6SM VCTS BKN080CB
     FM042200 19006KT P6SM -SHRA VCTS BKN050CB
      TEMPO 0503/0507 2SM TSRA BKN025CB
     FM050800 10004KT 3SM SHRA OVC015
     FM051500 12005KT 5SM BR VCSH OVC020=

USA.gov is the U.S. government's official web portal to all federal, state and local government web resources and services.